sensor_id;sensor_type;location;lat;lon;timestamp;P1;durP1;ratioP1;P2;durP2;ratioP2
16171;SDS011;8192;53.596;10.166;2022-12-31T00:01:52;6.50;;;3.63;;
16171;SDS011;8192;53.596;10.166;2022-12-31T00:04:20;0.47;;;0.47;;
16171;SDS011;8192;53.596;10.166;2022-12-31T00:06:47;6.17;;;3.00;;
16171;SDS011;8192;53.596;10.166;2022-12-31T00:09:14;3.90;;;1.83;;
16171;SDS011;8192;53.596;10.166;2022-12-31T00:11:42;2.00;;;1.27;;
16171;SDS011;8192;53.596;10.166;2022-12-31T00:14:08;5.97;;;2.67;;
16171;SDS011;8192;53.596;10.166;2022-12-31T00:16:36;3.37;;;1.83;;
16171;SDS011;8192;53.596;10.166;2022-12-31T00:19:06;4.17;;;2.50;;
16171;SDS011;8192;53.596;10.166;2022-12-31T00:21:39;0.30;;;0.20;;
16171;SDS011;8192;53.596;10.166;2022-12-31T00:24:06;3.63;;;2.23;;
16171;SDS011;8192;53.596;10.166;2022-12-31T00:26:34;4.63;;;1.83;;
16171;SDS011;8192;53.596;10.166;2022-12-31T00:29:02;4.83;;;2.50;;
16171;SDS011;8192;53.596;10.166;2022-12-31T00:31:30;8.87;;;0.97;;
16171;SDS011;8192;53.596;10.166;2022-12-31T00:33:59;10.17;;;2.37;;
16171;SDS011;8192;53.596;10.166;2022-12-31T00:36:26;3.63;;;1.10;;
16171;SDS011;8192;53.596;10.166;2022-12-31T00:38:56;6.70;;;2.70;;
16171;SDS011;8192;53.596;10.166;2022-12-31T00:41:24;0.30;;;0.30;;
16171;SDS011;8192;53.596;10.166;2022-12-31T00:43:51;0.10;;;0.10;;
16171;SDS011;8192;53.596;10.166;2022-12-31T00:46:19;3.80;;;2.33;;
16171;SDS011;8192;53.596;10.166;2022-12-31T00:48:47;2.47;;;1.23;;
16171;SDS011;8192;53.596;10.166;2022-12-31T00:51:14;5.57;;;2.87;;
16171;SDS011;8192;53.596;10.166;2022-12-31T00:53:43;3.23;;;2.10;;
16171;SDS011;8192;53.596;10.166;2022-12-31T00:56:13;1.50;;;1.40;;
16171;SDS011;8192;53.596;10.166;2022-12-31T00:58:42;3.00;;;1.73;;
16171;SDS011;8192;53.596;10.166;2022-12-31T01:01:10;0.23;;;0.23;;
16171;SDS011;8192;53.596;10.166;2022-12-31T01:03:39;3.83;;;1.63;;
16171;SDS011;8192;53.596;10.166;2022-12-31T01:06:07;2.30;;;1.70;;
16171;SDS011;8192;53.596;10.166;2022-12-31T01:08:34;1.97;;;1.47;;
16171;SDS011;8192;53.596;10.166;2022-12-31T01:11:02;0.67;;;0.27;;
16171;SDS011;8192;53.596;10.166;2022-12-31T01:13:48;3.07;;;0.57;;
16171;SDS011;8192;53.596;10.166;2022-12-31T01:16:17;2.80;;;2.20;;
16171;SDS011;8192;53.596;10.166;2022-12-31T01:18:44;0.77;;;0.63;;
16171;SDS011;8192;53.596;10.166;2022-12-31T01:21:14;1.93;;;1.20;;
16171;SDS011;8192;53.596;10.166;2022-12-31T01:23:41;2.17;;;1.07;;
16171;SDS011;8192;53.596;10.166;2022-12-31T01:26:09;5.93;;;3.00;;
16171;SDS011;8192;53.596;10.166;2022-12-31T01:28:38;0.13;;;0.13;;
16171;SDS011;8192;53.596;10.166;2022-12-31T01:31:07;1.50;;;1.30;;
16171;SDS011;8192;53.596;10.166;2022-12-31T01:33:36;2.07;;;1.00;;
16171;SDS011;8192;53.596;10.166;2022-12-31T01:36:05;0.77;;;0.77;;
16171;SDS011;8192;53.596;10.166;2022-12-31T01:38:33;2.30;;;1.50;;
16171;SDS011;8192;53.596;10.166;2022-12-31T01:41:01;2.73;;;1.53;;
16171;SDS011;8192;53.596;10.166;2022-12-31T01:46:24;0.70;;;0.70;;
16171;SDS011;8192;53.596;10.166;2022-12-31T01:48:55;1.63;;;1.53;;
16171;SDS011;8192;53.596;10.166;2022-12-31T01:51:25;3.63;;;1.23;;
16171;SDS011;8192;53.596;10.166;2022-12-31T01:53:59;2.07;;;1.40;;
16171;SDS011;8192;53.596;10.166;2022-12-31T01:56:28;1.53;;;1.03;;
16171;SDS011;8192;53.596;10.166;2022-12-31T01:58:55;1.60;;;1.00;;
16171;SDS011;8192;53.596;10.166;2022-12-31T02:01:25;2.67;;;1.20;;
16171;SDS011;8192;53.596;10.166;2022-12-31T02:03:56;1.10;;;0.90;;
16171;SDS011;8192;53.596;10.166;2022-12-31T02:06:25;1.73;;;1.00;;
16171;SDS011;8192;53.596;10.166;2022-12-31T02:08:58;11.57;;;2.30;;
16171;SDS011;8192;53.596;10.166;2022-12-31T02:11:26;2.10;;;0.53;;
16171;SDS011;8192;53.596;10.166;2022-12-31T02:13:57;0.57;;;0.57;;
16171;SDS011;8192;53.596;10.166;2022-12-31T02:16:32;1.50;;;0.63;;
16171;SDS011;8192;53.596;10.166;2022-12-31T02:19:09;2.60;;;0.40;;
16171;SDS011;8192;53.596;10.166;2022-12-31T02:21:55;4.17;;;2.00;;
16171;SDS011;8192;53.596;10.166;2022-12-31T02:24:31;0.77;;;0.43;;
16171;SDS011;8192;53.596;10.166;2022-12-31T02:27:18;2.03;;;1.07;;
16171;SDS011;8192;53.596;10.166;2022-12-31T02:30:09;1.77;;;1.00;;
16171;SDS011;8192;53.596;10.166;2022-12-31T02:35:36;10.50;;;1.50;;
16171;SDS011;8192;53.596;10.166;2022-12-31T02:38:10;5.93;;;1.97;;
16171;SDS011;8192;53.596;10.166;2022-12-31T02:40:40;8.47;;;1.93;;
16171;SDS011;8192;53.596;10.166;2022-12-31T02:43:08;1.30;;;0.83;;
16171;SDS011;8192;53.596;10.166;2022-12-31T02:45:37;1.03;;;0.97;;
16171;SDS011;8192;53.596;10.166;2022-12-31T02:48:21;0.73;;;0.47;;
16171;SDS011;8192;53.596;10.166;2022-12-31T02:50:59;0.90;;;0.83;;
16171;SDS011;8192;53.596;10.166;2022-12-31T02:53:38;1.90;;;0.90;;
16171;SDS011;8192;53.596;10.166;2022-12-31T02:56:18;0.50;;;0.50;;
16171;SDS011;8192;53.596;10.166;2022-12-31T02:58:54;0.70;;;0.70;;
16171;SDS011;8192;53.596;10.166;2022-12-31T03:01:47;2.27;;;1.40;;
16171;SDS011;8192;53.596;10.166;2022-12-31T03:04:35;0.20;;;0.20;;
16171;SDS011;8192;53.596;10.166;2022-12-31T03:07:03;1.47;;;0.63;;
16171;SDS011;8192;53.596;10.166;2022-12-31T03:09:32;1.00;;;0.47;;
16171;SDS011;8192;53.596;10.166;2022-12-31T03:11:59;0.23;;;0.23;;
16171;SDS011;8192;53.596;10.166;2022-12-31T03:14:45;1.03;;;1.00;;
16171;SDS011;8192;53.596;10.166;2022-12-31T03:17:14;2.10;;;1.23;;
16171;SDS011;8192;53.596;10.166;2022-12-31T03:19:41;0.13;;;0.13;;
16171;SDS011;8192;53.596;10.166;2022-12-31T03:22:26;1.43;;;0.93;;
16171;SDS011;8192;53.596;10.166;2022-12-31T03:24:53;0.00;;;0.00;;
16171;SDS011;8192;53.596;10.166;2022-12-31T03:27:39;0.00;;;0.00;;
16171;SDS011;8192;53.596;10.166;2022-12-31T03:30:06;0.00;;;0.00;;
16171;SDS011;8192;53.596;10.166;2022-12-31T03:32:35;0.00;;;0.00;;
16171;SDS011;8192;53.596;10.166;2022-12-31T03:35:02;0.00;;;0.00;;
16171;SDS011;8192;53.596;10.166;2022-12-31T03:37:30;0.00;;;0.00;;
16171;SDS011;8192;53.596;10.166;2022-12-31T03:39:57;0.00;;;0.00;;
16171;SDS011;8192;53.596;10.166;2022-12-31T03:42:24;0.00;;;0.00;;
16171;SDS011;8192;53.596;10.166;2022-12-31T03:44:51;0.00;;;0.00;;
16171;SDS011;8192;53.596;10.166;2022-12-31T03:47:18;0.00;;;0.00;;
16171;SDS011;8192;53.596;10.166;2022-12-31T03:49:46;0.00;;;0.00;;
16171;SDS011;8192;53.596;10.166;2022-12-31T03:52:13;0.00;;;0.00;;
16171;SDS011;8192;53.596;10.166;2022-12-31T03:54:40;0.00;;;0.00;;
16171;SDS011;8192;53.596;10.166;2022-12-31T03:57:07;0.00;;;0.00;;
16171;SDS011;8192;53.596;10.166;2022-12-31T03:59:35;0.00;;;0.00;;
16171;SDS011;8192;53.596;10.166;2022-12-31T04:02:02;0.00;;;0.00;;
16171;SDS011;8192;53.596;10.166;2022-12-31T04:04:30;0.00;;;0.00;;
16171;SDS011;8192;53.596;10.166;2022-12-31T04:06:58;0.00;;;0.00;;
16171;SDS011;8192;53.596;10.166;2022-12-31T04:09:25;0.00;;;0.00;;
16171;SDS011;8192;53.596;10.166;2022-12-31T04:11:52;0.00;;;0.00;;
16171;SDS011;8192;53.596;10.166;2022-12-31T04:14:19;0.00;;;0.00;;
16171;SDS011;8192;53.596;10.166;2022-12-31T04:16:46;0.00;;;0.00;;
16171;SDS011;8192;53.596;10.166;2022-12-31T04:19:13;0.00;;;0.00;;
16171;SDS011;8192;53.596;10.166;2022-12-31T04:21:40;0.00;;;0.00;;
16171;SDS011;8192;53.596;10.166;2022-12-31T04:24:08;0.00;;;0.00;;
16171;SDS011;8192;53.596;10.166;2022-12-31T04:26:36;0.00;;;0.00;;
16171;SDS011;8192;53.596;10.166;2022-12-31T04:29:03;0.00;;;0.00;;
16171;SDS011;8192;53.596;10.166;2022-12-31T04:31:31;0.00;;;0.00;;
16171;SDS011;8192;53.596;10.166;2022-12-31T04:33:58;0.00;;;0.00;;
16171;SDS011;8192;53.596;10.166;2022-12-31T04:36:25;0.00;;;0.00;;
16171;SDS011;8192;53.596;10.166;2022-12-31T04:38:52;0.00;;;0.00;;
16171;SDS011;8192;53.596;10.166;2022-12-31T04:41:20;0.00;;;0.00;;
16171;SDS011;8192;53.596;10.166;2022-12-31T04:43:51;0.00;;;0.00;;
16171;SDS011;8192;53.596;10.166;2022-12-31T04:46:20;0.00;;;0.00;;
16171;SDS011;8192;53.596;10.166;2022-12-31T04:48:48;0.00;;;0.00;;
16171;SDS011;8192;53.596;10.166;2022-12-31T04:51:16;0.00;;;0.00;;
16171;SDS011;8192;53.596;10.166;2022-12-31T04:53:43;0.00;;;0.00;;
16171;SDS011;8192;53.596;10.166;2022-12-31T04:56:11;0.00;;;0.00;;
16171;SDS011;8192;53.596;10.166;2022-12-31T04:58:40;0.00;;;0.00;;
16171;SDS011;8192;53.596;10.166;2022-12-31T05:01:08;0.00;;;0.00;;
16171;SDS011;8192;53.596;10.166;2022-12-31T05:03:35;0.00;;;0.00;;
16171;SDS011;8192;53.596;10.166;2022-12-31T05:06:03;0.00;;;0.00;;
16171;SDS011;8192;53.596;10.166;2022-12-31T05:08:32;0.00;;;0.00;;
16171;SDS011;8192;53.596;10.166;2022-12-31T05:10:59;0.00;;;0.00;;
16171;SDS011;8192;53.596;10.166;2022-12-31T05:13:26;0.00;;;0.00;;
16171;SDS011;8192;53.596;10.166;2022-12-31T05:15:55;0.00;;;0.00;;
16171;SDS011;8192;53.596;10.166;2022-12-31T05:18:22;0.00;;;0.00;;
16171;SDS011;8192;53.596;10.166;2022-12-31T05:20:49;0.00;;;0.00;;
16171;SDS011;8192;53.596;10.166;2022-12-31T05:23:16;0.00;;;0.00;;
16171;SDS011;8192;53.596;10.166;2022-12-31T05:25:44;0.00;;;0.00;;
16171;SDS011;8192;53.596;10.166;2022-12-31T05:28:12;0.00;;;0.00;;
16171;SDS011;8192;53.596;10.166;2022-12-31T05:30:40;0.00;;;0.00;;
16171;SDS011;8192;53.596;10.166;2022-12-31T05:33:09;0.00;;;0.00;;
16171;SDS011;8192;53.596;10.166;2022-12-31T05:35:36;0.00;;;0.00;;
16171;SDS011;8192;53.596;10.166;2022-12-31T05:38:03;0.00;;;0.00;;
16171;SDS011;8192;53.596;10.166;2022-12-31T05:40:30;0.00;;;0.00;;
16171;SDS011;8192;53.596;10.166;2022-12-31T05:42:58;0.00;;;0.00;;
16171;SDS011;8192;53.596;10.166;2022-12-31T05:45:25;0.00;;;0.00;;
16171;SDS011;8192;53.596;10.166;2022-12-31T05:47:52;0.00;;;0.00;;
16171;SDS011;8192;53.596;10.166;2022-12-31T05:50:20;0.00;;;0.00;;
16171;SDS011;8192;53.596;10.166;2022-12-31T05:52:49;0.00;;;0.00;;
16171;SDS011;8192;53.596;10.166;2022-12-31T05:55:16;0.00;;;0.00;;
16171;SDS011;8192;53.596;10.166;2022-12-31T05:57:43;0.00;;;0.00;;
16171;SDS011;8192;53.596;10.166;2022-12-31T06:00:10;0.00;;;0.00;;
16171;SDS011;8192;53.596;10.166;2022-12-31T06:02:38;0.00;;;0.00;;
16171;SDS011;8192;53.596;10.166;2022-12-31T06:05:06;0.00;;;0.00;;
16171;SDS011;8192;53.596;10.166;2022-12-31T06:07:35;0.00;;;0.00;;
16171;SDS011;8192;53.596;10.166;2022-12-31T06:10:02;0.00;;;0.00;;
16171;SDS011;8192;53.596;10.166;2022-12-31T06:12:30;0.00;;;0.00;;
16171;SDS011;8192;53.596;10.166;2022-12-31T06:14:57;0.00;;;0.00;;
16171;SDS011;8192;53.596;10.166;2022-12-31T06:17:25;0.00;;;0.00;;
16171;SDS011;8192;53.596;10.166;2022-12-31T06:19:53;0.00;;;0.00;;
16171;SDS011;8192;53.596;10.166;2022-12-31T06:22:20;0.00;;;0.00;;
16171;SDS011;8192;53.596;10.166;2022-12-31T06:24:49;0.00;;;0.00;;
16171;SDS011;8192;53.596;10.166;2022-12-31T06:27:16;0.00;;;0.00;;
16171;SDS011;8192;53.596;10.166;2022-12-31T06:29:43;0.00;;;0.00;;
16171;SDS011;8192;53.596;10.166;2022-12-31T06:32:12;0.00;;;0.00;;
16171;SDS011;8192;53.596;10.166;2022-12-31T06:34:39;0.00;;;0.00;;
16171;SDS011;8192;53.596;10.166;2022-12-31T06:37:06;0.00;;;0.00;;
16171;SDS011;8192;53.596;10.166;2022-12-31T06:39:33;0.00;;;0.00;;
16171;SDS011;8192;53.596;10.166;2022-12-31T06:42:01;0.00;;;0.00;;
16171;SDS011;8192;53.596;10.166;2022-12-31T06:44:28;0.00;;;0.00;;
16171;SDS011;8192;53.596;10.166;2022-12-31T06:46:56;0.00;;;0.00;;
16171;SDS011;8192;53.596;10.166;2022-12-31T06:49:22;0.00;;;0.00;;
16171;SDS011;8192;53.596;10.166;2022-12-31T06:51:49;0.00;;;0.00;;
16171;SDS011;8192;53.596;10.166;2022-12-31T06:54:16;0.00;;;0.00;;
16171;SDS011;8192;53.596;10.166;2022-12-31T06:56:44;0.00;;;0.00;;
16171;SDS011;8192;53.596;10.166;2022-12-31T06:59:18;0.00;;;0.00;;
16171;SDS011;8192;53.596;10.166;2022-12-31T07:02:05;0.00;;;0.00;;
16171;SDS011;8192;53.596;10.166;2022-12-31T07:04:49;0.00;;;0.00;;
16171;SDS011;8192;53.596;10.166;2022-12-31T07:07:35;0.00;;;0.00;;
16171;SDS011;8192;53.596;10.166;2022-12-31T07:10:16;0.00;;;0.00;;
16171;SDS011;8192;53.596;10.166;2022-12-31T07:12:51;0.00;;;0.00;;
16171;SDS011;8192;53.596;10.166;2022-12-31T07:15:39;0.00;;;0.00;;
16171;SDS011;8192;53.596;10.166;2022-12-31T07:18:17;0.00;;;0.00;;
16171;SDS011;8192;53.596;10.166;2022-12-31T07:20:55;0.00;;;0.00;;
16171;SDS011;8192;53.596;10.166;2022-12-31T07:23:22;0.00;;;0.00;;
16171;SDS011;8192;53.596;10.166;2022-12-31T07:25:50;0.00;;;0.00;;
16171;SDS011;8192;53.596;10.166;2022-12-31T07:28:24;0.00;;;0.00;;
16171;SDS011;8192;53.596;10.166;2022-12-31T07:31:10;0.00;;;0.00;;
16171;SDS011;8192;53.596;10.166;2022-12-31T07:33:46;0.00;;;0.00;;
16171;SDS011;8192;53.596;10.166;2022-12-31T07:36:26;0.00;;;0.00;;
16171;SDS011;8192;53.596;10.166;2022-12-31T07:39:12;0.00;;;0.00;;
16171;SDS011;8192;53.596;10.166;2022-12-31T07:41:47;0.00;;;0.00;;
16171;SDS011;8192;53.596;10.166;2022-12-31T07:44:37;0.00;;;0.00;;
16171;SDS011;8192;53.596;10.166;2022-12-31T07:47:22;0.00;;;0.00;;
16171;SDS011;8192;53.596;10.166;2022-12-31T07:49:51;0.00;;;0.00;;
16171;SDS011;8192;53.596;10.166;2022-12-31T07:52:19;0.00;;;0.00;;
16171;SDS011;8192;53.596;10.166;2022-12-31T07:54:47;0.00;;;0.00;;
16171;SDS011;8192;53.596;10.166;2022-12-31T07:57:15;0.00;;;0.00;;
16171;SDS011;8192;53.596;10.166;2022-12-31T07:59:47;0.00;;;0.00;;
16171;SDS011;8192;53.596;10.166;2022-12-31T08:02:32;0.00;;;0.00;;
16171;SDS011;8192;53.596;10.166;2022-12-31T08:05:24;0.00;;;0.00;;
16171;SDS011;8192;53.596;10.166;2022-12-31T08:07:57;0.00;;;0.00;;
16171;SDS011;8192;53.596;10.166;2022-12-31T08:10:31;0.00;;;0.00;;
16171;SDS011;8192;53.596;10.166;2022-12-31T08:13:07;0.00;;;0.00;;
16171;SDS011;8192;53.596;10.166;2022-12-31T08:15:36;0.00;;;0.00;;
16171;SDS011;8192;53.596;10.166;2022-12-31T08:18:07;0.00;;;0.00;;
16171;SDS011;8192;53.596;10.166;2022-12-31T08:20:39;0.00;;;0.00;;
16171;SDS011;8192;53.596;10.166;2022-12-31T08:23:15;0.00;;;0.00;;
16171;SDS011;8192;53.596;10.166;2022-12-31T08:25:55;0.00;;;0.00;;
16171;SDS011;8192;53.596;10.166;2022-12-31T08:28:40;0.00;;;0.00;;
16171;SDS011;8192;53.596;10.166;2022-12-31T08:31:23;0.00;;;0.00;;
16171;SDS011;8192;53.596;10.166;2022-12-31T08:33:59;0.00;;;0.00;;
16171;SDS011;8192;53.596;10.166;2022-12-31T08:36:36;0.00;;;0.00;;
16171;SDS011;8192;53.596;10.166;2022-12-31T08:39:12;0.00;;;0.00;;
16171;SDS011;8192;53.596;10.166;2022-12-31T08:41:50;0.00;;;0.00;;
16171;SDS011;8192;53.596;10.166;2022-12-31T08:44:21;0.00;;;0.00;;
16171;SDS011;8192;53.596;10.166;2022-12-31T08:46:58;0.00;;;0.00;;
16171;SDS011;8192;53.596;10.166;2022-12-31T08:49:36;0.00;;;0.00;;
16171;SDS011;8192;53.596;10.166;2022-12-31T08:52:05;0.00;;;0.00;;
16171;SDS011;8192;53.596;10.166;2022-12-31T08:54:42;0.00;;;0.00;;
16171;SDS011;8192;53.596;10.166;2022-12-31T08:57:18;0.00;;;0.00;;
16171;SDS011;8192;53.596;10.166;2022-12-31T08:59:52;0.00;;;0.00;;
16171;SDS011;8192;53.596;10.166;2022-12-31T09:02:38;0.00;;;0.00;;
16171;SDS011;8192;53.596;10.166;2022-12-31T09:05:20;0.00;;;0.00;;
16171;SDS011;8192;53.596;10.166;2022-12-31T09:07:53;0.00;;;0.00;;
16171;SDS011;8192;53.596;10.166;2022-12-31T09:10:32;0.00;;;0.00;;
16171;SDS011;8192;53.596;10.166;2022-12-31T09:15:39;0.00;;;0.00;;
16171;SDS011;8192;53.596;10.166;2022-12-31T09:18:08;0.00;;;0.00;;
16171;SDS011;8192;53.596;10.166;2022-12-31T09:20:39;0.00;;;0.00;;
16171;SDS011;8192;53.596;10.166;2022-12-31T09:23:08;0.00;;;0.00;;
16171;SDS011;8192;53.596;10.166;2022-12-31T09:25:38;0.00;;;0.00;;
16171;SDS011;8192;53.596;10.166;2022-12-31T09:28:12;0.00;;;0.00;;
16171;SDS011;8192;53.596;10.166;2022-12-31T09:30:44;0.00;;;0.00;;
16171;SDS011;8192;53.596;10.166;2022-12-31T09:33:20;0.00;;;0.00;;
16171;SDS011;8192;53.596;10.166;2022-12-31T09:36:00;0.00;;;0.00;;
16171;SDS011;8192;53.596;10.166;2022-12-31T09:38:34;0.00;;;0.00;;
16171;SDS011;8192;53.596;10.166;2022-12-31T09:41:13;0.00;;;0.00;;
16171;SDS011;8192;53.596;10.166;2022-12-31T09:50:14;0.00;;;0.00;;
16171;SDS011;8192;53.596;10.166;2022-12-31T09:53:03;0.00;;;0.00;;
16171;SDS011;8192;53.596;10.166;2022-12-31T09:55:44;0.00;;;0.00;;
16171;SDS011;8192;53.596;10.166;2022-12-31T09:58:19;0.00;;;0.00;;
16171;SDS011;8192;53.596;10.166;2022-12-31T10:00:59;0.00;;;0.00;;
16171;SDS011;8192;53.596;10.166;2022-12-31T10:03:44;0.00;;;0.00;;
16171;SDS011;8192;53.596;10.166;2022-12-31T10:06:22;0.00;;;0.00;;
16171;SDS011;8192;53.596;10.166;2022-12-31T10:09:00;0.00;;;0.00;;
16171;SDS011;8192;53.596;10.166;2022-12-31T10:11:44;0.00;;;0.00;;
16171;SDS011;8192;53.596;10.166;2022-12-31T10:14:29;0.00;;;0.00;;
16171;SDS011;8192;53.596;10.166;2022-12-31T10:17:10;0.00;;;0.00;;
16171;SDS011;8192;53.596;10.166;2022-12-31T10:19:56;0.00;;;0.00;;
16171;SDS011;8192;53.596;10.166;2022-12-31T10:22:57;0.00;;;0.00;;
16171;SDS011;8192;53.596;10.166;2022-12-31T10:25:45;0.00;;;0.00;;
16171;SDS011;8192;53.596;10.166;2022-12-31T10:28:36;0.00;;;0.00;;
16171;SDS011;8192;53.596;10.166;2022-12-31T10:31:12;0.00;;;0.00;;
16171;SDS011;8192;53.596;10.166;2022-12-31T10:33:42;0.00;;;0.00;;
16171;SDS011;8192;53.596;10.166;2022-12-31T10:36:17;0.00;;;0.00;;
16171;SDS011;8192;53.596;10.166;2022-12-31T10:38:55;0.00;;;0.00;;
16171;SDS011;8192;53.596;10.166;2022-12-31T10:41:40;0.00;;;0.00;;
16171;SDS011;8192;53.596;10.166;2022-12-31T10:47:58;0.00;;;0.00;;
16171;SDS011;8192;53.596;10.166;2022-12-31T10:50:47;0.00;;;0.00;;
16171;SDS011;8192;53.596;10.166;2022-12-31T10:53:45;0.00;;;0.00;;
16171;SDS011;8192;53.596;10.166;2022-12-31T10:56:44;0.00;;;0.00;;
16171;SDS011;8192;53.596;10.166;2022-12-31T11:15:29;0.00;;;0.00;;
16171;SDS011;8192;53.596;10.166;2022-12-31T11:18:12;0.00;;;0.00;;
16171;SDS011;8192;53.596;10.166;2022-12-31T11:20:50;0.00;;;0.00;;
16171;SDS011;8192;53.596;10.166;2022-12-31T11:23:34;0.00;;;0.00;;
16171;SDS011;8192;53.596;10.166;2022-12-31T11:26:11;0.00;;;0.00;;
16171;SDS011;8192;53.596;10.166;2022-12-31T11:31:46;0.00;;;0.00;;
16171;SDS011;8192;53.596;10.166;2022-12-31T11:34:52;0.00;;;0.00;;
16171;SDS011;8192;53.596;10.166;2022-12-31T11:37:39;0.00;;;0.00;;
16171;SDS011;8192;53.596;10.166;2022-12-31T11:43:10;0.00;;;0.00;;
16171;SDS011;8192;53.596;10.166;2022-12-31T11:46:03;0.00;;;0.00;;
16171;SDS011;8192;53.596;10.166;2022-12-31T11:48:55;0.00;;;0.00;;
16171;SDS011;8192;53.596;10.166;2022-12-31T11:51:54;0.00;;;0.00;;
16171;SDS011;8192;53.596;10.166;2022-12-31T11:57:26;0.00;;;0.00;;
16171;SDS011;8192;53.596;10.166;2022-12-31T12:00:03;0.00;;;0.00;;
16171;SDS011;8192;53.596;10.166;2022-12-31T12:02:41;0.00;;;0.00;;
16171;SDS011;8192;53.596;10.166;2022-12-31T12:05:12;0.00;;;0.00;;
16171;SDS011;8192;53.596;10.166;2022-12-31T12:07:41;0.00;;;0.00;;
16171;SDS011;8192;53.596;10.166;2022-12-31T12:10:14;0.00;;;0.00;;
16171;SDS011;8192;53.596;10.166;2022-12-31T12:12:47;0.00;;;0.00;;
16171;SDS011;8192;53.596;10.166;2022-12-31T12:15:16;0.00;;;0.00;;
16171;SDS011;8192;53.596;10.166;2022-12-31T12:17:50;0.00;;;0.00;;
16171;SDS011;8192;53.596;10.166;2022-12-31T12:20:20;0.00;;;0.00;;
16171;SDS011;8192;53.596;10.166;2022-12-31T12:22:54;0.00;;;0.00;;
16171;SDS011;8192;53.596;10.166;2022-12-31T12:28:18;0.00;;;0.00;;
16171;SDS011;8192;53.596;10.166;2022-12-31T12:30:51;0.00;;;0.00;;
16171;SDS011;8192;53.596;10.166;2022-12-31T12:33:21;0.00;;;0.00;;
16171;SDS011;8192;53.596;10.166;2022-12-31T12:35:49;0.00;;;0.00;;
16171;SDS011;8192;53.596;10.166;2022-12-31T12:38:17;0.00;;;0.00;;
16171;SDS011;8192;53.596;10.166;2022-12-31T12:40:53;0.00;;;0.00;;
16171;SDS011;8192;53.596;10.166;2022-12-31T12:43:22;0.00;;;0.00;;
16171;SDS011;8192;53.596;10.166;2022-12-31T12:46:00;0.00;;;0.00;;
16171;SDS011;8192;53.596;10.166;2022-12-31T12:48:33;0.00;;;0.00;;
16171;SDS011;8192;53.596;10.166;2022-12-31T12:51:10;0.00;;;0.00;;
16171;SDS011;8192;53.596;10.166;2022-12-31T12:53:49;0.00;;;0.00;;
16171;SDS011;8192;53.596;10.166;2022-12-31T12:56:29;0.00;;;0.00;;
16171;SDS011;8192;53.596;10.166;2022-12-31T12:59:11;0.00;;;0.00;;
16171;SDS011;8192;53.596;10.166;2022-12-31T13:02:10;0.00;;;0.00;;
16171;SDS011;8192;53.596;10.166;2022-12-31T13:04:56;0.00;;;0.00;;
16171;SDS011;8192;53.596;10.166;2022-12-31T13:07:33;0.00;;;0.00;;
16171;SDS011;8192;53.596;10.166;2022-12-31T13:13:16;0.00;;;0.00;;
16171;SDS011;8192;53.596;10.166;2022-12-31T13:15:53;0.00;;;0.00;;
16171;SDS011;8192;53.596;10.166;2022-12-31T13:18:38;0.00;;;0.00;;
16171;SDS011;8192;53.596;10.166;2022-12-31T13:21:18;0.00;;;0.00;;
16171;SDS011;8192;53.596;10.166;2022-12-31T13:23:57;0.00;;;0.00;;
16171;SDS011;8192;53.596;10.166;2022-12-31T13:26:30;0.00;;;0.00;;
16171;SDS011;8192;53.596;10.166;2022-12-31T13:29:04;0.00;;;0.00;;
16171;SDS011;8192;53.596;10.166;2022-12-31T13:31:37;0.00;;;0.00;;
16171;SDS011;8192;53.596;10.166;2022-12-31T13:34:06;0.00;;;0.00;;
16171;SDS011;8192;53.596;10.166;2022-12-31T13:36:40;0.00;;;0.00;;
16171;SDS011;8192;53.596;10.166;2022-12-31T13:39:11;0.00;;;0.00;;
16171;SDS011;8192;53.596;10.166;2022-12-31T13:41:44;0.00;;;0.00;;
16171;SDS011;8192;53.596;10.166;2022-12-31T13:44:15;0.00;;;0.00;;
16171;SDS011;8192;53.596;10.166;2022-12-31T13:46:51;0.00;;;0.00;;
16171;SDS011;8192;53.596;10.166;2022-12-31T13:49:26;0.00;;;0.00;;
16171;SDS011;8192;53.596;10.166;2022-12-31T13:51:59;0.00;;;0.00;;
16171;SDS011;8192;53.596;10.166;2022-12-31T13:54:32;0.00;;;0.00;;
16171;SDS011;8192;53.596;10.166;2022-12-31T13:57:10;0.00;;;0.00;;
16171;SDS011;8192;53.596;10.166;2022-12-31T13:59:44;0.00;;;0.00;;
16171;SDS011;8192;53.596;10.166;2022-12-31T14:02:21;0.00;;;0.00;;
16171;SDS011;8192;53.596;10.166;2022-12-31T14:04:56;0.00;;;0.00;;
16171;SDS011;8192;53.596;10.166;2022-12-31T14:07:31;0.00;;;0.00;;
16171;SDS011;8192;53.596;10.166;2022-12-31T14:12:47;0.00;;;0.00;;
16171;SDS011;8192;53.596;10.166;2022-12-31T14:15:21;0.00;;;0.00;;
16171;SDS011;8192;53.596;10.166;2022-12-31T14:17:56;0.00;;;0.00;;
16171;SDS011;8192;53.596;10.166;2022-12-31T14:20:31;0.00;;;0.00;;
16171;SDS011;8192;53.596;10.166;2022-12-31T14:23:08;0.00;;;0.00;;
16171;SDS011;8192;53.596;10.166;2022-12-31T14:25:45;0.00;;;0.00;;
16171;SDS011;8192;53.596;10.166;2022-12-31T14:28:15;0.00;;;0.00;;
16171;SDS011;8192;53.596;10.166;2022-12-31T14:30:46;0.00;;;0.00;;
16171;SDS011;8192;53.596;10.166;2022-12-31T14:33:21;0.00;;;0.00;;
16171;SDS011;8192;53.596;10.166;2022-12-31T14:36:12;0.00;;;0.00;;
16171;SDS011;8192;53.596;10.166;2022-12-31T14:39:07;0.00;;;0.00;;
16171;SDS011;8192;53.596;10.166;2022-12-31T14:41:48;0.00;;;0.00;;
16171;SDS011;8192;53.596;10.166;2022-12-31T14:44:35;0.00;;;0.00;;
16171;SDS011;8192;53.596;10.166;2022-12-31T14:47:18;0.00;;;0.00;;
16171;SDS011;8192;53.596;10.166;2022-12-31T14:49:55;0.00;;;0.00;;
16171;SDS011;8192;53.596;10.166;2022-12-31T14:52:32;0.00;;;0.00;;
16171;SDS011;8192;53.596;10.166;2022-12-31T14:55:10;0.00;;;0.00;;
16171;SDS011;8192;53.596;10.166;2022-12-31T14:57:48;0.00;;;0.00;;
16171;SDS011;8192;53.596;10.166;2022-12-31T15:00:24;0.00;;;0.00;;
16171;SDS011;8192;53.596;10.166;2022-12-31T15:02:55;0.00;;;0.00;;
16171;SDS011;8192;53.596;10.166;2022-12-31T15:05:24;0.00;;;0.00;;
16171;SDS011;8192;53.596;10.166;2022-12-31T15:08:13;0.00;;;0.00;;
16171;SDS011;8192;53.596;10.166;2022-12-31T15:11:02;0.00;;;0.00;;
16171;SDS011;8192;53.596;10.166;2022-12-31T15:13:40;0.00;;;0.00;;
16171;SDS011;8192;53.596;10.166;2022-12-31T15:16:17;0.00;;;0.00;;
16171;SDS011;8192;53.596;10.166;2022-12-31T15:18:56;0.00;;;0.00;;
16171;SDS011;8192;53.596;10.166;2022-12-31T15:21:42;0.00;;;0.00;;
16171;SDS011;8192;53.596;10.166;2022-12-31T15:24:18;0.00;;;0.00;;
16171;SDS011;8192;53.596;10.166;2022-12-31T15:26:48;0.00;;;0.00;;
16171;SDS011;8192;53.596;10.166;2022-12-31T15:31:58;0.00;;;0.00;;
16171;SDS011;8192;53.596;10.166;2022-12-31T15:34:28;0.00;;;0.00;;
16171;SDS011;8192;53.596;10.166;2022-12-31T15:36:57;0.00;;;0.00;;
16171;SDS011;8192;53.596;10.166;2022-12-31T15:39:36;0.00;;;0.00;;
16171;SDS011;8192;53.596;10.166;2022-12-31T15:45:10;0.00;;;0.00;;
16171;SDS011;8192;53.596;10.166;2022-12-31T15:47:44;0.00;;;0.00;;
16171;SDS011;8192;53.596;10.166;2022-12-31T15:50:17;0.00;;;0.00;;
16171;SDS011;8192;53.596;10.166;2022-12-31T15:52:48;0.00;;;0.00;;
16171;SDS011;8192;53.596;10.166;2022-12-31T15:55:20;0.00;;;0.00;;
16171;SDS011;8192;53.596;10.166;2022-12-31T15:57:53;0.00;;;0.00;;
16171;SDS011;8192;53.596;10.166;2022-12-31T16:00:24;0.00;;;0.00;;
16171;SDS011;8192;53.596;10.166;2022-12-31T16:03:00;0.00;;;0.00;;
16171;SDS011;8192;53.596;10.166;2022-12-31T16:05:27;0.00;;;0.00;;
16171;SDS011;8192;53.596;10.166;2022-12-31T16:07:59;0.00;;;0.00;;
16171;SDS011;8192;53.596;10.166;2022-12-31T16:10:27;0.00;;;0.00;;
16171;SDS011;8192;53.596;10.166;2022-12-31T16:13:00;0.00;;;0.00;;
16171;SDS011;8192;53.596;10.166;2022-12-31T16:15:28;0.00;;;0.00;;
16171;SDS011;8192;53.596;10.166;2022-12-31T16:17:59;0.00;;;0.00;;
16171;SDS011;8192;53.596;10.166;2022-12-31T16:20:29;0.00;;;0.00;;
16171;SDS011;8192;53.596;10.166;2022-12-31T16:22:58;0.00;;;0.00;;
16171;SDS011;8192;53.596;10.166;2022-12-31T16:25:27;0.00;;;0.00;;